Time;durP1;ratioP1;P1;durP2;ratioP2;P2;SDS_P1;SDS_P2;PMS_P1;PMS_P2;Temp;Humidity;BMP_temperature;BMP_pressure;BME280_temperature;BME280_humidity;BME280_pressure;Samples;Min_cycle;Max_cycle;Signal;HPM_P1;HPM_P2
2023/04/08 00:01:46;;;;;;;26.77;15.57;;;4.70;99.90;4.70;94243.00;;;;7396028;19;20152;-76
2023/04/08 00:04:20;;;;;;;22.80;14.87;;;4.70;99.90;4.80;94266.00;;;;7394469;19;20121;-76
2023/04/08 00:06:47;;;;;;;23.23;14.73;;;4.70;99.90;4.60;94243.00;;;;7397398;19;20616;-76
2023/04/08 00:09:21;;;;;;;24.03;14.97;;;4.70;99.90;4.70;94252.00;;;;7396941;19;20152;-77
2023/04/08 00:11:56;;;;;;;24.63;16.23;;;4.70;99.90;4.60;94270.00;;;;7394589;19;20132;-76
2023/04/08 00:14:29;;;;;;;24.17;15.47;;;4.60;99.90;4.60;94271.00;;;;7394426;19;20612;-75
2023/04/08 00:16:56;;;;;;;25.40;15.33;;;4.60;99.90;4.60;94226.00;;;;7397788;19;20526;-74
2023/04/08 00:19:30;;;;;;;27.30;15.80;;;4.60;99.90;4.60;94258.00;;;;7396523;19;20136;-75
2023/04/08 00:21:57;;;;;;;27.80;17.27;;;4.60;99.90;4.60;94238.00;;;;7397718;19;20129;-75
2023/04/08 00:24:31;;;;;;;27.80;18.10;;;4.60;99.90;4.70;94276.00;;;;7396255;19;20511;-77
2023/04/08 00:27:05;;;;;;;29.37;17.70;;;4.60;99.90;4.70;94275.00;;;;7395570;19;20608;-77
2023/04/08 00:29:39;;;;;;;25.97;17.93;;;4.60;99.90;4.70;94259.00;;;;7397748;19;20600;-77
2023/04/08 00:32:06;;;;;;;32.47;19.47;;;4.70;99.90;4.80;94274.00;;;;7387140;19;20212;-76
2023/04/08 00:34:40;;;;;;;28.70;18.33;;;4.60;99.90;4.70;94281.00;;;;7389731;19;20488;-77
2023/04/08 00:37:14;;;;;;;28.57;18.23;;;4.70;99.90;4.70;94259.00;;;;7397638;19;20125;-76
2023/04/08 00:39:48;;;;;;;26.43;16.93;;;4.70;99.90;4.70;94282.00;;;;7396739;19;20133;-76
2023/04/08 00:42:16;;;;;;;30.83;18.83;;;4.70;99.90;4.70;94282.00;;;;7395527;19;20128;-77
2023/04/08 00:44:50;;;;;;;30.50;18.53;;;4.70;99.90;4.90;94279.00;;;;7397041;19;20520;-75
2023/04/08 00:47:24;;;;;;;31.70;18.20;;;4.70;99.90;4.80;94251.00;;;;7396281;19;20141;-77
2023/04/08 00:49:51;;;;;;;29.80;17.20;;;4.70;99.90;4.70;94286.00;;;;7395743;19;20155;-76
2023/04/08 00:52:25;;;;;;;28.10;17.90;;;4.70;99.90;4.70;94280.00;;;;7395627;19;20450;-77
2023/04/08 00:54:59;;;;;;;31.17;18.33;;;4.80;99.90;4.80;94299.00;;;;7396014;19;20142;-77
2023/04/08 00:57:33;;;;;;;30.17;17.23;;;4.70;99.90;4.90;94272.00;;;;7395933;19;20152;-76
2023/04/08 01:00:15;;;;;;;27.23;16.20;;;4.70;99.90;4.90;94273.00;;;;7395320;19;20153;-77
2023/04/08 01:03:34;;;;;;;28.67;16.50;;;4.60;99.90;4.70;94283.00;;;;7396153;19;20137;-76
2023/04/08 01:06:45;;;;;;;26.57;15.77;;;4.70;99.90;4.80;94288.00;;;;7396597;19;20129;-76
2023/04/08 01:09:24;;;;;;;27.13;15.33;;;4.70;99.90;4.70;94243.00;;;;7393640;19;20531;-76
2023/04/08 01:11:53;;;;;;;25.33;14.27;;;4.70;99.90;4.70;94270.00;;;;7393698;19;20125;-74
2023/04/08 01:14:27;;;;;;;23.53;13.80;;;4.70;99.90;4.80;94291.00;;;;7391037;19;20152;-77
2023/04/08 01:17:02;;;;;;;21.57;13.27;;;4.60;99.90;4.70;94275.00;;;;7395932;19;20117;-75
2023/04/08 01:19:41;;;;;;;22.00;14.57;;;4.60;99.90;4.90;94285.00;;;;7392144;19;20202;-76
2023/04/08 01:22:50;;;;;;;25.83;13.40;;;4.60;99.90;4.70;94261.00;;;;7396137;19;20606;-78
2023/04/08 01:25:38;;;;;;;31.57;14.73;;;4.60;99.90;4.70;94279.00;;;;7400763;19;20145;-74
2023/04/08 01:28:18;;;;;;;25.70;14.43;;;4.60;99.90;4.60;94287.00;;;;7401878;19;20469;-77
2023/04/08 01:30:46;;;;;;;22.23;13.10;;;4.60;99.90;4.80;94297.00;;;;7402226;19;20174;-74
2023/04/08 01:33:21;;;;;;;35.37;16.10;;;4.60;99.90;4.80;94296.00;;;;7402424;19;20139;-77
2023/04/08 01:35:50;;;;;;;24.40;13.27;;;4.50;99.90;4.70;94289.00;;;;7401939;19;20156;-76
2023/04/08 01:38:27;;;;;;;26.17;14.73;;;4.50;99.90;4.70;94296.00;;;;7401265;19;20156;-76
2023/04/08 01:41:00;;;;;;;26.97;14.40;;;4.60;98.80;4.70;94265.00;;;;7401573;19;20216;-77
2023/04/08 01:43:35;;;;;;;30.23;15.10;;;4.50;84.10;4.70;94287.00;;;;7401653;19;20460;-76
2023/04/08 01:46:12;;;;;;;21.13;12.03;;;4.50;83.60;4.80;94298.00;;;;7403128;19;20204;-76
2023/04/08 01:48:40;;;;;;;21.97;11.93;;;4.40;68.30;4.70;94284.00;;;;7396476;19;20576;-75
2023/04/08 01:51:16;;;;;;;21.33;12.17;;;4.40;99.90;4.70;94281.00;;;;7402920;19;20453;-75
2023/04/08 01:53:50;;;;;;;21.13;10.93;;;4.40;93.90;4.60;94288.00;;;;7400839;19;20551;-77
2023/04/08 01:56:28;;;;;;;19.80;10.93;;;4.40;99.90;4.60;94300.00;;;;7403084;19;20492;-77
2023/04/08 01:59:00;;;;;;;16.10;9.07;;;4.40;99.90;4.70;94299.00;;;;7399804;19;20189;-77
2023/04/08 02:01:34;;;;;;;14.57;9.37;;;4.30;93.30;4.40;94288.00;;;;7400006;19;20571;-77
2023/04/08 02:04:03;;;;;;;15.77;9.63;;;4.30;99.90;4.50;94229.00;;;;7398886;19;20160;-76
2023/04/08 02:06:37;;;;;;;15.10;9.30;;;4.30;85.70;4.30;94284.00;;;;7399793;19;20619;-76
2023/04/08 02:09:11;;;;;;;17.37;9.53;;;4.30;92.60;4.20;94281.00;;;;7400287;19;20511;-76
2023/04/08 02:11:38;;;;;;;14.07;9.57;;;4.30;65.20;4.40;94288.00;;;;7401040;19;20192;-76
2023/04/08 02:14:12;;;;;;;13.77;9.57;;;4.30;37.40;4.20;94291.00;;;;7400664;19;20121;-77
2023/04/08 02:16:51;;;;;;;14.60;9.70;;;4.30;35.30;4.30;94239.00;;;;7400206;19;20145;-77
2023/04/08 02:19:31;;;;;;;17.17;10.27;;;4.30;18.50;4.20;94287.00;;;;7396379;19;20148;-75
2023/04/08 02:22:17;;;;;;;15.57;9.47;;;4.20;9.80;4.20;94282.00;;;;7400284;19;20666;-76
2023/04/08 02:24:52;;;;;;;14.03;9.80;;;4.20;5.10;4.10;94282.00;;;;7400254;19;20155;-78
2023/04/08 02:27:28;;;;;;;15.73;10.30;;;4.20;1.00;4.20;94260.00;;;;7401364;19;20480;-75
2023/04/08 02:29:58;;;;;;;14.70;9.83;;;4.20;1.00;4.20;94280.00;;;;7400239;19;20129;-77
2023/04/08 02:32:33;;;;;;;13.77;9.37;;;4.20;1.00;4.30;94284.00;;;;7397715;19;20804;-77
2023/04/08 02:35:10;;;;;;;16.40;9.87;;;4.10;1.00;4.20;94259.00;;;;7396745;19;20140;-77
2023/04/08 02:37:38;;;;;;;14.53;8.60;;;4.10;1.00;4.20;94277.00;;;;7401552;19;20136;-77
2023/04/08 02:40:34;;;;;;;13.50;9.03;;;4.10;1.00;4.20;94262.00;;;;7401463;19;20129;-77
2023/04/08 02:43:08;;;;;;;13.20;8.50;;;4.10;6.60;4.10;94263.00;;;;7399372;19;20623;-77
2023/04/08 02:45:43;;;;;;;13.40;8.67;;;4.10;21.40;4.10;94259.00;;;;7400048;19;20155;-76
2023/04/08 02:48:10;;;;;;;15.90;10.00;;;4.10;8.10;4.20;94269.00;;;;7399005;19;20617;-77
2023/04/08 02:50:44;;;;;;;16.30;9.30;;;4.10;1.00;4.10;94270.00;;;;7401317;19;20524;-76
2023/04/08 02:53:11;;;;;;;13.93;9.43;;;4.00;1.00;4.00;94249.00;;;;7398840;19;20488;-77
2023/04/08 02:55:52;;;;;;;15.60;9.57;;;4.00;1.00;4.00;94274.00;;;;7399067;19;20621;-76
2023/04/08 02:58:19;;;;;;;13.67;9.10;;;4.00;1.70;4.00;94266.00;;;;7398997;19;20487;-76
2023/04/08 03:00:59;;;;;;;15.27;9.30;;;4.00;2.50;4.00;94254.00;;;;7394634;19;20243;-77
2023/04/08 03:03:33;;;;;;;16.23;9.93;;;4.00;13.60;4.00;94262.00;;;;7396844;19;20145;-77
2023/04/08 03:06:07;;;;;;;16.23;10.37;;;4.00;17.60;4.00;94270.00;;;;7398217;19;20128;-75
2023/04/08 03:08:41;;;;;;;18.23;10.30;;;4.00;23.30;4.00;94247.00;;;;7398322;19;20200;-75
2023/04/08 03:11:15;;;;;;;17.13;10.50;;;4.00;30.60;4.10;94274.00;;;;7400344;19;20473;-77
2023/04/08 03:13:49;;;;;;;15.67;10.20;;;4.00;30.70;4.10;94243.00;;;;7399343;19;20604;-75
2023/04/08 03:16:23;;;;;;;16.67;10.17;;;4.00;34.10;4.10;94234.00;;;;7398653;19;20139;-76
2023/04/08 03:18:50;;;;;;;19.80;11.37;;;4.00;43.20;4.10;94245.00;;;;7396507;19;20153;-76
2023/04/08 03:21:24;;;;;;;20.83;10.50;;;4.00;63.50;4.10;94231.00;;;;7399438;19;20613;-76
2023/04/08 03:23:51;;;;;;;15.50;9.23;;;4.00;74.40;4.00;94268.00;;;;7399377;19;20457;-77
2023/04/08 03:26:26;;;;;;;15.57;9.70;;;4.00;83.80;4.00;94262.00;;;;7398687;19;20584;-77
2023/04/08 03:28:53;;;;;;;18.27;10.33;;;4.00;88.50;4.10;94269.00;;;;7398981;19;20496;-76
2023/04/08 03:31:26;;;;;;;15.50;9.57;;;4.00;89.30;4.00;94270.00;;;;7398064;19;20140;-76
2023/04/08 03:33:53;;;;;;;17.30;10.20;;;4.00;99.90;4.00;94258.00;;;;7397217;19;20212;-77
2023/04/08 03:36:28;;;;;;;17.60;10.40;;;4.00;99.90;4.00;94267.00;;;;7395085;19;20459;-77
2023/04/08 03:39:02;;;;;;;15.97;10.17;;;4.00;99.90;4.00;94280.00;;;;7397433;19;20615;-74
2023/04/08 03:41:29;;;;;;;17.87;10.57;;;4.00;99.90;4.00;94258.00;;;;7397849;19;20132;-76
2023/04/08 03:44:03;;;;;;;19.90;11.40;;;4.00;99.90;4.00;94288.00;;;;7397819;19;20157;-75
2023/04/08 03:46:37;;;;;;;18.43;10.80;;;4.00;99.90;4.00;94276.00;;;;7393524;19;20145;-77
2023/04/08 03:49:10;;;;;;;17.67;10.63;;;4.00;99.90;4.00;94251.00;;;;7398870;19;20479;-75
2023/04/08 03:51:37;;;;;;;16.97;9.23;;;4.10;99.90;4.00;94272.00;;;;7398300;19;20152;-77
2023/04/08 03:54:11;;;;;;;15.93;9.97;;;4.10;99.90;4.10;94264.00;;;;7398792;19;20121;-76
2023/04/08 03:56:44;;;;;;;15.53;9.47;;;4.10;99.90;4.00;94272.00;;;;7396654;19;20449;-76
2023/04/08 03:59:18;;;;;;;14.37;8.87;;;4.00;99.90;4.00;94268.00;;;;7396090;19;20176;-76
2023/04/08 04:01:58;;;;;;;15.77;9.20;;;4.00;99.90;4.00;94278.00;;;;7395301;19;20165;-76
2023/04/08 04:04:33;;;;;;;13.90;8.80;;;4.00;99.90;4.00;94285.00;;;;7397342;19;20136;-76
2023/04/08 04:07:06;;;;;;;14.63;9.40;;;4.10;99.90;4.10;94285.00;;;;7396201;19;20461;-78
2023/04/08 04:09:40;;;;;;;16.70;8.87;;;4.10;99.90;4.20;94273.00;;;;7397074;19;20142;-74
2023/04/08 04:12:07;;;;;;;14.37;9.30;;;4.00;96.40;4.10;94284.00;;;;7398365;19;20542;-76
2023/04/08 04:14:34;;;;;;;16.10;9.70;;;4.00;99.90;4.10;94254.00;;;;7397687;19;20160;-77
2023/04/08 04:17:08;;;;;;;14.47;9.60;;;4.10;99.90;4.10;94266.00;;;;7395487;19;20488;-76
2023/04/08 04:19:35;;;;;;;15.23;8.80;;;4.10;99.90;4.20;94276.00;;;;7396172;19;20152;-76
2023/04/08 04:22:09;;;;;;;17.57;9.10;;;4.10;99.90;4.20;94280.00;;;;7397475;19;20137;-77
2023/04/08 04:24:49;;;;;;;15.00;8.43;;;4.10;99.90;4.20;94276.00;;;;7397670;19;20498;-77
2023/04/08 04:27:16;;;;;;;13.80;8.67;;;4.10;99.90;4.10;94266.00;;;;7396465;19;20164;-76
2023/04/08 04:29:50;;;;;;;13.83;8.70;;;4.10;98.50;4.10;94274.00;;;;7394564;19;20204;-77
2023/04/08 04:32:24;;;;;;;15.93;8.60;;;4.10;99.60;4.10;94286.00;;;;7391626;19;20137;-76
2023/04/08 04:34:58;;;;;;;14.03;8.77;;;4.10;98.30;4.20;94280.00;;;;7390473;19;20121;-77
2023/04/08 04:37:26;;;;;;;13.90;9.10;;;4.10;97.40;4.20;94284.00;;;;7385880;19;20642;-76
2023/04/08 04:40:00;;;;;;;12.70;8.83;;;4.10;99.90;4.20;94293.00;;;;7389271;19;20172;-77
2023/04/08 04:42:27;;;;;;;15.20;9.47;;;4.10;90.50;4.20;94271.00;;;;7389772;19;20152;-76
2023/04/08 04:45:01;;;;;;;14.73;10.03;;;4.10;82.00;4.20;94280.00;;;;7385993;19;20125;-76
2023/04/08 04:47:35;;;;;;;15.97;10.07;;;4.10;80.10;4.10;94287.00;;;;7388502;19;20612;-75
2023/04/08 04:50:09;;;;;;;18.30;10.40;;;4.10;77.30;4.20;94281.00;;;;7391888;19;20137;-76
2023/04/08 04:52:43;;;;;;;16.70;9.80;;;4.10;59.50;4.20;94292.00;;;;7389892;19;20205;-77
2023/04/08 04:55:17;;;;;;;14.03;9.90;;;4.00;26.00;4.10;94285.00;;;;7386682;19;20131;-76
2023/04/08 04:57:51;;;;;;;15.80;9.87;;;3.90;1.00;3.80;94292.00;;;;7393183;19;20200;-78
2023/04/08 05:00:31;;;;;;;17.07;10.00;;;3.70;1.00;3.70;94253.00;;;;7396156;19;20928;-76
2023/04/08 05:03:05;;;;;;;15.53;9.73;;;3.60;1.00;3.50;94290.00;;;;7397807;19;20484;-76
2023/04/08 05:05:39;;;;;;;14.90;9.63;;;3.40;1.00;3.50;94305.00;;;;7394724;19;20467;-77
2023/04/08 05:08:13;;;;;;;19.70;10.70;;;3.20;1.00;3.60;94295.00;;;;7397911;19;20188;-77
2023/04/08 05:10:49;;;;;;;17.20;10.60;;;3.20;1.00;3.60;94257.00;;;;7393369;19;20144;-76
2023/04/08 05:13:17;;;;;;;16.60;10.97;;;3.20;1.00;3.70;94313.00;;;;7392409;19;20129;-77
2023/04/08 05:15:51;;;;;;;20.83;12.50;;;3.30;3.90;3.80;94299.00;;;;7389573;19;20216;-76
2023/04/08 05:18:18;;;;;;;24.10;11.63;;;3.40;49.60;4.00;94298.00;;;;7397997;19;20138;-76
2023/04/08 05:20:45;;;;;;;22.43;12.50;;;3.50;99.90;4.00;94293.00;;;;7394551;19;20140;-76
2023/04/08 05:23:19;;;;;;;21.47;13.27;;;3.60;99.90;4.10;94293.00;;;;7396480;19;20150;-76
2023/04/08 05:25:54;;;;;;;26.03;13.30;;;3.70;99.90;4.10;94278.00;;;;7396988;19;20117;-76
2023/04/08 05:28:21;;;;;;;20.60;12.27;;;3.70;99.90;4.00;94316.00;;;;7393801;19;20129;-77
2023/04/08 05:30:55;;;;;;;23.87;12.17;;;3.90;99.90;4.10;94299.00;;;;7396196;19;20136;-77
2023/04/08 05:33:22;;;;;;;19.53;11.50;;;3.90;99.90;4.10;94312.00;;;;7397960;19;20125;-77
2023/04/08 05:35:56;;;;;;;20.63;12.67;;;4.00;99.90;4.30;94309.00;;;;7389427;19;20140;-76
2023/04/08 05:38:23;;;;;;;23.60;11.90;;;4.00;99.90;4.30;94292.00;;;;7397631;19;20149;-75
2023/04/08 05:40:57;;;;;;;21.83;12.33;;;4.00;99.90;4.30;94317.00;;;;7395671;19;20140;-74
2023/04/08 05:43:35;;;;;;;24.10;12.03;;;4.00;99.90;4.40;94319.00;;;;7396365;19;20125;-77
2023/04/08 05:46:10;;;;;;;20.07;12.13;;;4.10;99.90;4.40;94322.00;;;;7393481;19;20546;-76
2023/04/08 05:48:37;;;;;;;22.00;12.73;;;4.10;99.90;4.60;94268.00;;;;7394050;19;20172;-75
2023/04/08 05:51:16;;;;;;;23.40;13.60;;;4.20;99.90;4.70;94309.00;;;;7391620;19;20149;-76
2023/04/08 05:53:46;;;;;;;21.73;13.07;;;4.20;99.90;4.50;94319.00;;;;7392828;19;20227;-76
2023/04/08 05:56:20;;;;;;;25.43;14.63;;;4.30;99.90;4.70;94288.00;;;;7392686;19;20132;-74
2023/04/08 05:59:00;;;;;;;23.90;13.30;;;4.30;99.90;5.00;94310.00;;;;7394918;19;20145;-76
2023/04/08 06:01:33;;;;;;;23.27;14.63;;;4.50;99.90;5.00;94328.00;;;;7396181;19;20145;-75
2023/04/08 06:04:13;;;;;;;22.07;13.10;;;4.60;99.90;4.70;94299.00;;;;7401181;19;20156;-76
2023/04/08 06:06:47;;;;;;;27.40;14.73;;;4.70;99.90;4.70;94319.00;;;;7397100;19;20612;-76
2023/04/08 06:09:21;;;;;;;23.23;14.47;;;4.70;15.10;5.00;94279.00;;;;7398303;19;20537;-76
2023/04/08 06:11:49;;;;;;;22.67;13.63;;;4.70;1.00;5.10;94338.00;;;;7400130;19;20165;-74
2023/04/08 06:14:23;;;;;;;19.83;13.00;;;4.70;1.00;5.20;94335.00;;;;7399802;19;20152;-76
2023/04/08 06:16:52;;;;;;;18.13;12.43;;;4.70;1.00;5.20;94330.00;;;;7401250;19;20135;-76
2023/04/08 06:19:25;;;;;;;22.87;13.70;;;4.70;1.00;5.20;94345.00;;;;7401717;19;20128;-76
2023/04/08 06:21:57;;;;;;;21.23;14.40;;;4.80;1.00;4.90;94320.00;;;;7401422;19;20153;-76
2023/04/08 06:24:31;;;;;;;23.17;14.87;;;5.00;1.00;5.10;94320.00;;;;7399506;19;20167;-76
2023/04/08 06:26:59;;;;;;;24.43;15.80;;;5.10;99.90;5.40;94305.00;;;;7398055;19;20148;-75
2023/04/08 06:29:33;;;;;;;24.83;16.10;;;5.10;99.90;5.50;94343.00;;;;7400524;19;20156;-75
2023/04/08 06:32:00;;;;;;;22.37;14.33;;;5.20;1.00;5.60;94337.00;;;;7399086;19;20137;-76
2023/04/08 06:34:33;;;;;;;22.00;14.60;;;5.30;1.00;6.10;94317.00;;;;7395147;19;20582;-75
2023/04/08 06:37:07;;;;;;;22.10;14.57;;;5.50;1.00;6.00;94342.00;;;;7402161;19;20131;-76
2023/04/08 06:39:41;;;;;;;18.93;12.93;;;5.70;1.00;5.70;94349.00;;;;7389837;19;20129;-75
2023/04/08 06:42:08;;;;;;;20.17;12.67;;;5.80;99.90;5.60;94348.00;;;;7396425;19;20133;-74
2023/04/08 06:44:42;;;;;;;15.50;11.83;;;5.90;34.80;5.80;94355.00;;;;7368663;19;20184;-74
2023/04/08 06:47:16;;;;;;;14.50;11.00;;;5.90;1.00;6.00;94360.00;;;;7382452;19;20624;-72
2023/04/08 06:50:10;;;;;;;16.50;11.10;;;5.90;1.00;6.10;94349.00;;;;7377012;19;20144;-72
2023/04/08 06:52:44;;;;;;;13.27;10.40;;;5.90;1.00;5.60;94350.00;;;;7382941;19;20481;-72
2023/04/08 06:55:18;;;;;;;12.90;9.67;;;5.80;1.00;5.40;94354.00;;;;7379868;19;20141;-72
2023/04/08 06:57:46;;;;;;;12.67;10.00;;;5.70;1.00;5.60;94365.00;;;;7381081;19;20189;-72
2023/04/08 07:00:20;;;;;;;15.47;10.73;;;5.60;1.00;5.50;94329.00;;;;7381135;19;20212;-72
2023/04/08 07:02:56;;;;;;;14.80;10.63;;;5.60;1.00;5.60;94374.00;;;;7381756;19;20156;-73
2023/04/08 07:05:31;;;;;;;16.40;11.30;;;5.60;1.00;5.40;94334.00;;;;7379770;19;20132;-75
2023/04/08 07:07:58;;;;;;;15.60;11.80;;;5.60;55.00;5.50;94377.00;;;;7381551;19;20148;-72
2023/04/08 07:10:34;;;;;;;15.80;11.70;;;5.70;1.00;5.80;94384.00;;;;7383408;19;20153;-73
2023/04/08 07:13:09;;;;;;;16.27;10.43;;;5.70;1.00;5.50;94382.00;;;;7379893;19;20148;-73
2023/04/08 07:15:43;;;;;;;14.73;10.67;;;5.60;1.00;5.30;94367.00;;;;7384450;19;20133;-73
2023/04/08 07:18:17;;;;;;;19.97;12.80;;;5.60;1.00;5.40;94380.00;;;;7381183;19;20149;-73
2023/04/08 07:20:55;;;;;;;16.87;11.67;;;5.40;1.00;5.60;94378.00;;;;7380637;19;20160;-73
2023/04/08 07:23:30;;;;;;;16.97;11.87;;;5.30;1.00;5.40;94379.00;;;;7382631;19;22826;-73
2023/04/08 07:26:05;;;;;;;15.40;10.03;;;5.30;1.00;5.50;94352.00;;;;7377455;19;20148;-74
2023/04/08 07:28:39;;;;;;;14.00;10.40;;;5.30;1.00;5.60;94346.00;;;;7380750;19;20509;-74
2023/04/08 07:31:17;;;;;;;15.20;11.50;;;5.50;1.00;6.10;94362.00;;;;7377539;19;20151;-74
2023/04/08 07:33:45;;;;;;;14.40;10.47;;;5.80;1.00;6.90;94363.00;;;;7379699;19;20141;-74
2023/04/08 07:36:20;;;;;;;16.33;11.67;;;6.10;1.00;7.10;94353.00;;;;7372602;19;20131;-75
2023/04/08 07:38:55;;;;;;;14.73;10.63;;;6.60;99.90;7.40;94368.00;;;;7376500;19;20148;-74
2023/04/08 07:41:28;;;;;;;15.87;11.43;;;6.90;1.00;7.90;94382.00;;;;7376273;19;20129;-74
2023/04/08 07:43:56;;;;;;;16.77;10.13;;;7.00;7.30;7.20;94355.00;;;;7374027;19;20153;-74
2023/04/08 07:46:32;;;;;;;15.37;11.00;;;7.10;1.00;7.40;94385.00;;;;7377747;19;20196;-73
2023/04/08 07:49:08;;;;;;;14.17;10.53;;;7.30;1.00;7.60;94376.00;;;;7377818;19;20125;-74
2023/04/08 07:51:42;;;;;;;12.77;10.33;;;7.40;99.90;7.60;94374.00;;;;7376899;19;20171;-74
2023/04/08 07:54:11;;;;;;;14.63;10.80;;;7.50;99.90;7.70;94393.00;;;;7379212;19;20588;-74
2023/04/08 07:56:46;;;;;;;15.07;10.57;;;7.60;12.10;8.30;94366.00;;;;7379437;19;20148;-74
2023/04/08 07:59:32;;;;;;;16.20;11.80;;;7.60;99.90;7.60;94396.00;;;;7376229;19;20533;-74
2023/04/08 08:02:06;;;;;;;14.43;10.90;;;7.60;1.00;7.10;94383.00;;;;7378125;19;20153;-74
2023/04/08 08:04:40;;;;;;;14.67;10.83;;;7.60;99.90;7.20;94413.00;;;;7378297;19;20143;-73
2023/04/08 08:07:15;;;;;;;15.80;11.60;;;7.60;99.90;6.70;94365.00;;;;7373393;19;20137;-74
2023/04/08 08:09:42;;;;;;;14.83;11.57;;;7.40;1.00;7.30;94374.00;;;;7377269;19;20163;-74
2023/04/08 08:12:19;;;;;;;16.37;12.10;;;7.40;1.00;7.20;94400.00;;;;7377573;19;20124;-74
2023/04/08 08:14:53;;;;;;;20.13;13.17;;;7.40;1.00;7.10;94343.00;;;;7375814;19;20148;-74
2023/04/08 08:17:29;;;;;;;20.17;13.00;;;7.50;1.00;7.60;94379.00;;;;7378862;19;20588;-74
2023/04/08 08:20:05;;;;;;;18.80;13.70;;;7.60;1.00;8.40;94366.00;;;;7377490;19;20152;-75
2023/04/08 08:22:39;;;;;;;18.20;13.53;;;7.80;1.00;9.10;94402.00;;;;7378178;19;20129;-75
2023/04/08 08:25:23;;;;;;;20.50;14.63;;;8.20;99.90;8.40;94384.00;;;;7377310;19;20193;-74
2023/04/08 08:28:02;;;;;;;19.38;13.82;;;8.30;99.90;10.10;94397.00;;;;7375875;19;20428;-75
2023/04/08 08:30:30;;;;;;;18.63;13.25;;;8.70;99.90;10.90;94382.00;;;;7377127;19;20151;-75
2023/04/08 08:33:04;;;;;;;17.25;12.73;;;9.30;99.90;11.30;94385.00;;;;7381456;19;20163;-75
2023/04/08 08:35:38;;;;;;;15.10;11.68;;;10.10;1.00;11.60;94370.00;;;;7379188;19;20124;-71
2023/04/08 08:38:13;;;;;;;19.65;12.00;;;10.60;99.90;11.70;94367.00;;;;7381731;19;20129;-72
2023/04/08 08:40:40;;;;;;;14.05;11.27;;;11.10;99.90;11.40;94369.00;;;;7384424;19;20145;-73
2023/04/08 08:43:14;;;;;;;19.75;12.13;;;11.30;99.90;11.60;94386.00;;;;7382664;19;20579;-73
2023/04/08 08:45:42;;;;;;;13.50;11.63;;;11.30;99.90;11.00;94399.00;;;;7378058;19;20212;-73
2023/04/08 08:48:23;;;;;;;16.88;11.30;;;11.40;8.40;11.00;94420.00;;;;7384908;19;20187;-73
2023/04/08 08:50:51;;;;;;;14.80;11.90;;;11.20;49.80;11.20;94428.00;;;;7385765;19;20124;-73
2023/04/08 08:53:30;;;;;;;15.70;12.10;;;10.90;48.50;11.00;94405.00;;;;7381076;19;20133;-73
2023/04/08 08:56:08;;;;;;;14.48;12.15;;;10.60;88.40;10.60;94410.00;;;;7385740;19;20128;-73
2023/04/08 08:58:46;;;;;;;13.80;11.05;;;10.60;16.90;11.00;94433.00;;;;7379757;19;20169;-73
2023/04/08 09:01:36;;;;;;;18.75;12.40;;;10.70;81.80;11.50;94415.00;;;;7383171;19;20207;-74
2023/04/08 09:04:18;;;;;;;15.35;12.30;;;10.70;15.60;10.50;94428.00;;;;7384705;19;20568;-74
2023/04/08 09:07:03;;;;;;;14.30;11.65;;;10.60;5.50;10.90;94420.00;;;;7381947;19;20148;-74
2023/04/08 09:09:58;;;;;;;13.85;11.20;;;10.50;13.30;10.90;94377.00;;;;7384092;19;20152;-74
2023/04/08 09:12:27;;;;;;;13.45;11.20;;;10.40;1.00;11.80;94408.00;;;;7384401;19;20153;-74
2023/04/08 09:15:09;;;;;;;14.45;11.65;;;10.50;1.00;12.20;94390.00;;;;7383985;19;20148;-74
2023/04/08 09:17:43;;;;;;;15.00;11.73;;;10.60;1.00;12.20;94383.00;;;;7384746;19;20215;-74
2023/04/08 09:20:20;;;;;;;13.07;11.18;;;10.50;1.00;12.60;94428.00;;;;7380115;19;20133;-73
2023/04/08 09:22:58;;;;;;;17.38;11.77;;;10.70;1.00;13.20;94417.00;;;;7385182;19;20169;-74
2023/04/08 09:25:33;;;;;;;12.77;10.85;;;11.00;1.00;13.30;94393.00;;;;7380269;19;20619;-74
2023/04/08 09:28:22;;;;;;;13.95;11.65;;;11.30;1.00;13.30;94425.00;;;;7379722;19;20511;-74
2023/04/08 09:30:56;;;;;;;13.55;10.68;;;11.70;1.00;11.60;94414.00;;;;7383496;19;20471;-74
2023/04/08 09:33:30;;;;;;;13.68;10.35;;;11.90;1.00;11.40;94424.00;;;;7383959;19;20129;-74
2023/04/08 09:35:58;;;;;;;15.38;10.82;;;12.00;1.00;13.30;94421.00;;;;7378908;19;20152;-73
2023/04/08 09:38:31;;;;;;;16.60;10.23;;;12.30;1.00;11.00;94385.00;;;;7381330;19;21046;-73
2023/04/08 09:41:05;;;;;;;12.45;10.25;;;12.10;1.00;10.50;94432.00;;;;7383871;19;20171;-73
2023/04/08 09:43:48;;;;;;;12.75;10.02;;;11.90;1.00;12.20;94423.00;;;;7382261;19;20484;-75
2023/04/08 09:46:31;;;;;;;15.50;10.13;;;11.80;1.00;11.50;94415.00;;;;7383976;19;20176;-73
2023/04/08 09:49:11;;;;;;;11.15;9.48;;;11.90;1.00;12.30;94411.00;;;;7382209;19;20637;-73
2023/04/08 09:51:52;;;;;;;13.25;10.65;;;11.80;1.00;12.40;94443.00;;;;7383212;19;21099;-74
2023/04/08 09:54:53;;;;;;;11.65;9.93;;;11.50;1.00;12.30;94440.00;;;;7383765;19;20525;-74
2023/04/08 09:57:35;;;;;;;12.30;9.90;;;11.10;1.00;12.50;94433.00;;;;7375446;19;20140;-74
2023/04/08 10:00:22;;;;;;;11.57;9.63;;;10.90;1.00;13.20;94421.00;;;;7379978;19;20191;-74
2023/04/08 10:03:21;;;;;;;11.75;9.65;;;11.50;1.00;13.40;94421.00;;;;7381199;19;20152;-73
2023/04/08 10:05:57;;;;;;;10.27;9.00;;;12.20;1.00;10.90;94451.00;;;;7385907;19;20137;-73
2023/04/08 10:08:32;;;;;;;16.77;10.38;;;12.00;1.00;11.30;94443.00;;;;7384831;19;20156;-73
2023/04/08 10:11:07;;;;;;;14.20;9.90;;;11.50;1.00;11.90;94453.00;;;;7384003;19;20491;-74
2023/04/08 10:13:42;;;;;;;20.50;9.60;;;11.60;1.00;12.00;94452.00;;;;7385804;19;20125;-76
2023/04/08 10:16:18;;;;;;;13.63;9.25;;;11.70;1.00;12.30;94446.00;;;;7382554;19;20203;-77
2023/04/08 10:18:56;;;;;;;13.05;9.45;;;12.00;1.00;12.60;94459.00;;;;7381813;19;20129;-72
2023/04/08 10:21:58;;;;;;;13.40;9.23;;;12.10;1.00;12.70;94455.00;;;;7384061;19;20156;-75
2023/04/08 10:24:34;;;;;;;12.48;10.07;;;12.00;1.00;12.40;94419.00;;;;7381855;19;20189;-73
2023/04/08 10:27:41;;;;;;;11.70;9.93;;;12.00;1.00;11.70;94445.00;;;;7382525;19;20471;-72
2023/04/08 10:30:27;;;;;;;12.80;9.75;;;11.80;1.00;12.70;94445.00;;;;7384642;19;20447;-74
2023/04/08 10:33:08;;;;;;;13.23;11.00;;;11.70;1.00;13.00;94418.00;;;;7381893;19;20131;-74
2023/04/08 10:35:41;;;;;;;12.63;10.30;;;11.90;1.00;11.80;94456.00;;;;7378164;19;20200;-74
2023/04/08 10:38:15;;;;;;;11.23;9.05;;;12.20;1.00;11.40;94449.00;;;;7382244;19;20207;-74
2023/04/08 10:40:43;;;;;;;11.43;9.70;;;12.60;1.00;12.60;94456.00;;;;7381990;19;20132;-74
2023/04/08 10:43:17;;;;;;;10.85;9.23;;;12.60;1.00;12.00;94448.00;;;;7382697;19;20595;-73
2023/04/08 10:45:45;;;;;;;11.27;10.05;;;12.30;1.00;10.40;94456.00;;;;7377972;19;20155;-75
2023/04/08 10:48:21;;;;;;;12.07;10.48;;;12.10;1.00;10.10;94461.00;;;;7376050;19;20452;-74
2023/04/08 10:51:00;;;;;;;13.52;9.98;;;11.90;99.90;11.40;94460.00;;;;7380712;19;20151;-76
2023/04/08 10:53:33;;;;;;;14.75;10.25;;;11.70;1.00;11.50;94462.00;;;;7379502;19;20181;-74
2023/04/08 10:56:11;;;;;;;12.18;9.98;;;11.30;1.00;11.10;94447.00;;;;7377410;19;20141;-76
2023/04/08 10:58:51;;;;;;;12.38;9.80;;;11.40;1.00;10.70;94465.00;;;;7382607;19;20125;-75
2023/04/08 11:01:32;;;;;;;11.95;9.80;;;11.50;1.00;11.20;94432.00;;;;7378491;19;20184;-74
2023/04/08 11:04:12;;;;;;;13.85;10.38;;;11.10;1.00;10.00;94457.00;;;;7380800;19;20136;-76
2023/04/08 11:06:46;;;;;;;12.57;10.50;;;11.00;1.00;10.90;94396.00;;;;7381130;19;20228;-74
2023/04/08 11:09:21;;;;;;;11.10;9.68;;;10.70;1.00;11.00;94436.00;;;;7379166;19;20183;-76
2023/04/08 11:11:56;;;;;;;11.25;10.00;;;10.30;1.00;10.10;94456.00;;;;7383437;19;20120;-75
2023/04/08 11:14:32;;;;;;;11.95;10.30;;;10.10;1.00;10.40;94443.00;;;;7379518;19;20176;-74
2023/04/08 11:17:00;;;;;;;14.50;11.10;;;10.00;1.00;10.20;94441.00;;;;7380660;19;20682;-73
2023/04/08 11:19:36;;;;;;;14.02;11.20;;;10.00;1.00;9.90;94465.00;;;;7378456;19;20572;-75
2023/04/08 11:22:05;;;;;;;12.68;10.43;;;10.00;1.00;10.10;94447.00;;;;7380808;19;20145;-74
2023/04/08 11:24:39;;;;;;;11.93;9.90;;;9.80;1.00;9.70;94463.00;;;;7381341;19;20128;-76
2023/04/08 11:27:15;;;;;;;12.93;10.43;;;9.80;1.00;9.30;94413.00;;;;7374956;19;20117;-74
2023/04/08 11:29:49;;;;;;;13.07;10.18;;;9.70;1.00;8.80;94413.00;;;;7380498;19;20127;-76
2023/04/08 11:32:24;;;;;;;15.50;11.70;;;9.60;1.00;9.10;94466.00;;;;7378109;19;20129;-73